createdAt,value
2022-09-15T00:02:07.537Z,53.58
2022-09-15T00:07:11.892Z,53.54
2022-09-15T00:12:14.522Z,53.75
2022-09-15T00:17:17.174Z,53.73
2022-09-15T00:22:21.310Z,53.72
2022-09-15T00:27:23.984Z,53.67
2022-09-15T00:32:26.772Z,53.83
2022-09-15T00:37:30.769Z,53.94
2022-09-15T00:42:33.849Z,54.07
2022-09-15T00:47:37.660Z,53.92
2022-09-15T00:52:43.465Z,54.07
2022-09-15T00:57:47.417Z,54.09
2022-09-15T01:02:50.372Z,54.26
2022-09-15T01:07:55.945Z,54.44
2022-09-15T01:13:01.011Z,54.54
2022-09-15T01:18:10.271Z,54.40
2022-09-15T01:23:35.875Z,54.37
2022-09-15T01:28:56.719Z,54.38
2022-09-15T01:34:03.377Z,54.55
2022-09-15T01:39:08.952Z,54.57
2022-09-15T01:44:13.134Z,54.77
2022-09-15T01:49:19.610Z,54.76
2022-09-15T01:54:23.334Z,54.63
2022-09-15T01:59:25.982Z,54.54
2022-09-15T02:04:31.984Z,54.50
2022-09-15T02:09:35.866Z,54.60
2022-09-15T02:14:47.215Z,54.61
2022-09-15T02:19:51.925Z,54.62
2022-09-15T02:24:58.101Z,54.67
2022-09-15T02:30:05.846Z,54.71
2022-09-15T02:35:10.381Z,54.51
2022-09-15T02:40:13.368Z,54.64
2022-09-15T02:45:16.211Z,54.69
2022-09-15T02:50:20.431Z,54.53
2022-09-15T02:55:23.114Z,54.84
2022-09-15T03:00:25.858Z,54.69
2022-09-15T03:05:30.538Z,54.70
2022-09-15T03:10:33.518Z,54.54
2022-09-15T03:15:36.330Z,54.64
2022-09-15T03:20:40.345Z,54.64
2022-09-15T03:25:42.988Z,54.72
2022-09-15T03:30:46.250Z,54.59
2022-09-15T03:35:50.590Z,54.58
2022-09-15T03:41:01.577Z,54.51
2022-09-15T03:46:04.485Z,54.37
2022-09-15T03:51:08.888Z,54.41
2022-09-15T03:56:12.561Z,54.61
2022-09-15T04:01:15.287Z,54.52
2022-09-15T04:06:19.590Z,54.64
2022-09-15T04:11:22.917Z,54.62
2022-09-15T04:16:27.601Z,54.34
2022-09-15T04:21:32.495Z,54.44
2022-09-15T04:26:36.358Z,54.39
2022-09-15T04:31:39.119Z,54.40
2022-09-15T04:36:43.582Z,54.55
2022-09-15T04:41:46.400Z,54.29
2022-09-15T04:46:49.391Z,54.39
2022-09-15T04:51:53.910Z,54.33
2022-09-15T04:56:56.676Z,54.26
2022-09-15T05:01:59.349Z,54.40
2022-09-15T05:07:03.431Z,54.21
2022-09-15T05:12:06.649Z,54.39
2022-09-15T05:17:09.288Z,54.23
2022-09-15T05:22:13.456Z,54.20
2022-09-15T05:27:16.128Z,54.08
2022-09-15T05:32:18.809Z,54.18
2022-09-15T05:37:22.833Z,54.00
2022-09-15T05:42:25.478Z,54.22
2022-09-15T05:47:28.190Z,54.17
2022-09-15T05:52:32.288Z,54.07
2022-09-15T05:57:35.002Z,54.07
2022-09-15T06:02:37.768Z,53.92
2022-09-15T06:07:41.798Z,53.96
2022-09-15T06:12:44.512Z,53.90
2022-09-15T06:17:47.143Z,54.05
2022-09-15T06:22:51.145Z,53.73
2022-09-15T06:27:54.246Z,53.80
2022-09-15T06:32:56.868Z,53.82
2022-09-15T06:38:00.952Z,53.87
2022-09-15T06:43:03.582Z,53.96
2022-09-15T06:48:23.440Z,53.10
2022-09-15T06:53:29.427Z,54.23
2022-09-15T06:58:32.081Z,55.85
2022-09-15T07:03:34.853Z,55.25
2022-09-15T07:08:39.597Z,54.56
2022-09-15T07:13:42.334Z,55.05
2022-09-15T07:18:45.022Z,55.21
2022-09-15T07:23:49.349Z,54.80
2022-09-15T07:28:55.366Z,54.24
2022-09-15T07:33:59.053Z,54.07
2022-09-15T07:39:03.690Z,53.53
2022-09-15T07:44:08.003Z,53.74
2022-09-15T07:49:11.181Z,53.59
2022-09-15T07:54:19.392Z,53.58
2022-09-15T07:59:24.232Z,53.62
2022-09-15T08:04:27.314Z,53.52
2022-09-15T08:09:31.404Z,53.32
2022-09-15T08:14:34.069Z,53.31
2022-09-15T08:19:37.189Z,53.41
2022-09-15T08:24:41.418Z,53.09
2022-09-15T08:29:44.072Z,52.98
2022-09-15T08:34:46.995Z,53.12
2022-09-15T08:39:52.023Z,53.18
2022-09-15T08:44:57.805Z,53.05
2022-09-15T08:50:03.538Z,53.11
2022-09-15T08:55:11.196Z,52.96
2022-09-15T09:00:15.712Z,52.98
2022-09-15T09:05:36.830Z,52.54
2022-09-15T09:10:43.106Z,52.63
2022-09-15T09:15:51.296Z,52.56
2022-09-15T09:20:58.864Z,52.69
2022-09-15T09:26:05.479Z,52.81
2022-09-15T09:31:13.742Z,52.76
2022-09-15T09:36:16.626Z,52.67
2022-09-15T09:41:22.195Z,53.18
2022-09-15T09:46:24.977Z,54.03
2022-09-15T09:51:32.188Z,54.36
2022-09-15T09:56:36.504Z,54.51
2022-09-15T10:01:39.250Z,54.29
2022-09-15T10:06:42.523Z,54.03
2022-09-15T10:11:47.758Z,54.04
2022-09-15T10:17:00.675Z,54.18
2022-09-15T10:22:03.394Z,53.92
2022-09-15T10:27:21.947Z,53.88
2022-09-15T10:32:26.604Z,53.51
2022-09-15T10:37:32.405Z,53.27
2022-09-15T10:42:47.463Z,53.02
2022-09-15T10:47:57.777Z,52.85
2022-09-15T10:53:09.684Z,52.97
2022-09-15T10:58:45.796Z,52.57
2022-09-15T11:03:56.961Z,53.02
2022-09-15T11:09:05.923Z,53.06
2022-09-15T11:14:19.550Z,53.04
2022-09-15T11:19:40.452Z,53.49
2022-09-15T11:24:44.310Z,53.56
2022-09-15T11:30:01.364Z,53.41
2022-09-15T11:35:26.423Z,53.63
2022-09-15T11:40:30.229Z,54.08
2022-09-15T11:45:36.419Z,54.03
2022-09-15T11:50:40.086Z,54.14
2022-09-15T11:55:44.093Z,54.12
2022-09-15T12:00:53.814Z,53.99
2022-09-15T12:05:58.053Z,54.02
2022-09-15T12:11:02.102Z,53.92
2022-09-15T12:16:06.638Z,53.72
2022-09-15T12:21:12.860Z,53.96
2022-09-15T12:26:17.486Z,53.80
2022-09-15T12:31:32.758Z,53.57
2022-09-15T12:36:43.633Z,53.72
2022-09-15T12:41:48.548Z,53.95
2022-09-15T12:46:53.664Z,53.51
2022-09-15T12:51:56.406Z,53.79
2022-09-15T12:56:59.063Z,53.54
2022-09-15T13:02:03.348Z,53.71
2022-09-15T13:07:32.511Z,53.32
2022-09-15T13:12:38.048Z,53.56
2022-09-15T13:17:43.699Z,53.81
2022-09-15T13:22:47.153Z,54.23
2022-09-15T13:27:50.660Z,53.82
2022-09-15T13:32:57.297Z,54.47
2022-09-15T13:38:31.805Z,54.58
2022-09-15T13:43:46.245Z,54.96
2022-09-15T13:48:55.730Z,54.84
2022-09-15T13:53:59.581Z,55.16
2022-09-15T13:59:10.180Z,55.25
2022-09-15T14:04:17.843Z,55.06
2022-09-15T14:09:22.601Z,55.08
2022-09-15T14:14:33.238Z,55.04
2022-09-15T14:19:38.004Z,55.03
2022-09-15T14:24:40.651Z,55.07
2022-09-15T14:29:43.511Z,55.18
2022-09-15T14:39:56.624Z,54.74
2022-09-15T14:50:36.914Z,53.50
2022-09-15T14:55:41.046Z,53.85
2022-09-15T15:00:51.214Z,53.78
2022-09-15T15:06:02.882Z,53.71
2022-09-15T15:11:10.995Z,53.41
2022-09-15T15:16:23.447Z,52.94
2022-09-15T15:21:36.726Z,52.95
2022-09-15T15:26:40.302Z,53.11
2022-09-15T15:31:43.281Z,52.89
2022-09-15T15:36:47.552Z,51.95
2022-09-15T15:41:50.716Z,51.99
2022-09-15T15:46:54.585Z,51.28
2022-09-15T15:51:59.321Z,49.80
2022-09-15T15:57:05.659Z,49.37
2022-09-15T16:02:11.259Z,49.29
2022-09-15T16:07:17.571Z,48.75
2022-09-15T16:12:20.298Z,48.31
2022-09-15T16:17:23.004Z,47.70
2022-09-15T16:22:27.221Z,47.94
2022-09-15T16:27:30.218Z,48.27
2022-09-15T16:32:32.903Z,48.11
2022-09-15T16:37:37.024Z,42.83
2022-09-15T16:42:39.892Z,44.83
2022-09-15T16:47:42.527Z,46.47
2022-09-15T16:52:46.538Z,47.81
2022-09-15T16:57:49.167Z,49.31
2022-09-15T17:02:52.234Z,47.88
2022-09-15T17:07:56.707Z,47.59
2022-09-15T17:12:59.398Z,47.78
2022-09-15T17:18:02.110Z,47.75
2022-09-15T17:23:14.606Z,47.85
2022-09-15T17:28:21.087Z,47.75
2022-09-15T17:33:24.082Z,47.73
2022-09-15T17:38:28.196Z,47.87
2022-09-15T17:43:31.849Z,47.81
2022-09-15T17:48:34.587Z,47.97
2022-09-15T17:53:38.692Z,48.14
2022-09-15T17:58:41.949Z,48.11
2022-09-15T18:03:45.203Z,48.05
2022-09-15T18:08:49.314Z,48.04
2022-09-15T18:13:52.082Z,48.17
2022-09-15T18:18:54.801Z,47.97
2022-09-15T18:23:58.900Z,48.07
2022-09-15T18:29:02.094Z,47.98
2022-09-15T18:34:04.908Z,48.11
2022-09-15T18:39:11.177Z,48.06
2022-09-15T18:44:13.876Z,47.93
2022-09-15T18:49:16.812Z,48.02
2022-09-15T18:54:20.879Z,47.92
2022-09-15T18:59:23.587Z,47.88
2022-09-15T19:04:31.610Z,47.75
2022-09-15T19:09:36.916Z,47.81
2022-09-15T19:14:43.312Z,47.66
2022-09-15T19:19:48.759Z,47.41
2022-09-15T19:24:52.753Z,47.15
2022-09-15T19:29:55.438Z,47.48
2022-09-15T19:34:58.137Z,47.17
2022-09-15T19:40:03.223Z,46.94
2022-09-15T19:45:06.769Z,47.01
2022-09-15T19:50:09.948Z,46.70
2022-09-15T19:55:13.957Z,46.75
2022-09-15T20:00:16.762Z,46.72
2022-09-15T20:05:19.713Z,46.56
2022-09-15T20:10:23.718Z,46.71
2022-09-15T20:15:26.482Z,46.37
2022-09-15T20:20:29.090Z,46.30
2022-09-15T20:25:33.289Z,46.29
2022-09-15T20:30:36.080Z,46.26
2022-09-15T20:35:39.089Z,46.36
2022-09-15T20:40:43.336Z,46.27
2022-09-15T20:45:54.902Z,46.33
2022-09-15T20:51:03.924Z,46.27
2022-09-15T20:56:08.365Z,46.20
2022-09-15T21:01:12.254Z,46.28
2022-09-15T21:06:16.000Z,46.34
2022-09-15T21:11:20.972Z,46.15
2022-09-15T21:16:25.297Z,46.44
2022-09-15T21:21:29.724Z,46.48
2022-09-15T21:26:34.504Z,46.30
2022-09-15T21:31:37.223Z,46.42
2022-09-15T21:36:40.650Z,46.25
2022-09-15T21:41:44.647Z,46.42
2022-09-15T21:46:47.760Z,45.99
2022-09-15T21:51:50.403Z,46.08
2022-09-15T21:56:54.437Z,45.92
2022-09-15T22:01:57.701Z,45.97
2022-09-15T22:07:00.468Z,46.30
2022-09-15T22:12:04.774Z,45.52
2022-09-15T22:17:07.473Z,46.08
2022-09-15T22:22:10.181Z,46.23
2022-09-15T22:27:14.212Z,45.99
2022-09-15T22:32:16.933Z,46.10
2022-09-15T22:37:19.832Z,46.26
2022-09-15T22:42:24.177Z,46.01
2022-09-15T22:47:26.839Z,46.16
2022-09-15T22:52:29.756Z,46.13
2022-09-15T22:57:37.232Z,45.75
2022-09-15T23:02:39.904Z,45.76
2022-09-15T23:07:42.778Z,46.19
2022-09-15T23:12:46.946Z,46.21
2022-09-15T23:17:49.746Z,46.47
2022-09-15T23:22:53.363Z,46.30
2022-09-15T23:27:57.358Z,46.45
2022-09-15T23:33:00.093Z,46.52
2022-09-15T23:38:02.768Z,46.75
2022-09-15T23:43:07.025Z,46.77
2022-09-15T23:48:09.795Z,47.04
2022-09-15T23:53:12.528Z,47.09
2022-09-15T23:58:16.699Z,47.31
